Time;durP1;ratioP1;P1;durP2;ratioP2;P2;SDS_P1;SDS_P2;PMS_P1;PMS_P2;Temp;Humidity;BMP_temperature;BMP_pressure;BME280_temperature;BME280_humidity;BME280_pressure;Samples;Min_cycle;Max_cycle;Signal;HPM_P1;HPM_P2
2023/05/21 00:01:42;;;;;;;8.90;2.90;;;;;13.00;101277.00;;;;10409326;28;20224;-82
2023/05/21 00:06:43;;;;;;;4.47;3.10;;;;;12.90;101279.00;;;;10432424;28;20891;-76
2023/05/21 00:11:45;;;;;;;3.93;2.80;;;;;12.90;101271.00;;;;10424223;28;20208;-76
2023/05/21 00:16:46;;;;;;;3.97;2.87;;;;;12.80;101273.00;;;;10405799;28;20211;-75
2023/05/21 00:21:48;;;;;;;4.87;3.10;;;;;12.70;101264.00;;;;10418012;28;20223;-76
2023/05/21 00:26:49;;;;;;;11.03;3.47;;;;;12.50;101265.00;;;;10421113;28;20217;-76
2023/05/21 00:31:51;;;;;;;7.23;2.90;;;;;12.40;101261.00;;;;10423191;28;20212;-74
2023/05/21 00:36:54;;;;;;;3.30;2.93;;;;;12.30;101264.00;;;;10403312;28;20272;-75
2023/05/21 00:41:55;;;;;;;4.70;2.93;;;;;12.30;101254.00;;;;10402318;28;20736;-76
2023/05/21 00:46:57;;;;;;;4.57;3.20;;;;;12.20;101259.00;;;;10402036;28;20549;-75
2023/05/21 00:52:00;;;;;;;5.57;2.97;;;;;12.20;101266.00;;;;10416321;28;20225;-75
2023/05/21 00:57:02;;;;;;;6.80;3.43;;;;;12.10;101266.00;;;;10359527;28;20236;-77
2023/05/21 01:02:05;;;;;;;4.00;3.17;;;;;12.10;101255.00;;;;10401320;28;21624;-75
2023/05/21 01:07:08;;;;;;;5.07;4.03;;;;;12.10;101257.00;;;;10395756;28;20262;-78
2023/05/21 01:12:10;;;;;;;3.53;3.23;;;;;12.00;101274.00;;;;10405976;28;20510;-78
2023/05/21 01:17:12;;;;;;;4.23;3.57;;;;;12.00;101256.00;;;;10397886;28;20200;-75
2023/05/21 01:22:17;;;;;;;5.97;3.60;;;;;12.00;101251.00;;;;10420811;28;20244;-76
2023/05/21 01:27:18;;;;;;;6.30;4.13;;;;;12.00;101246.00;;;;10390103;28;20209;-75
2023/05/21 01:32:30;;;;;;;6.17;3.80;;;;;12.00;101256.00;;;;10374690;28;20217;-76
2023/05/21 01:37:56;;;;;;;4.40;3.60;;;;;11.90;101256.00;;;;10418469;28;20305;-76
2023/05/21 01:42:58;;;;;;;5.70;3.80;;;;;11.80;101251.00;;;;10402973;28;21388;-75
2023/05/21 01:48:00;;;;;;;6.00;3.90;;;;;11.80;101254.00;;;;10392254;28;20205;-74
2023/05/21 01:53:04;;;;;;;5.40;4.00;;;;;11.70;101250.00;;;;10384985;28;21662;-78
2023/05/21 01:58:07;;;;;;;10.53;4.57;;;;;11.70;101248.00;;;;10410615;28;20591;-77
2023/05/21 02:03:08;;;;;;;4.70;4.20;;;;;11.60;101239.00;;;;10420210;28;20212;-78
2023/05/21 02:08:11;;;;;;;5.17;4.67;;;;;11.60;101240.00;;;;10390647;28;20792;-75
2023/05/21 02:13:12;;;;;;;5.73;4.20;;;;;11.60;101244.00;;;;10410011;28;20948;-76
2023/05/21 02:18:15;;;;;;;5.93;4.20;;;;;11.60;101251.00;;;;10407328;28;20239;-76
2023/05/21 02:23:17;;;;;;;6.47;4.30;;;;;11.60;101238.00;;;;10392621;28;20205;-76
2023/05/21 02:28:20;;;;;;;7.97;4.73;;;;;11.60;101231.00;;;;10393884;28;20212;-75
2023/05/21 02:33:21;;;;;;;5.73;4.60;;;;;11.60;101236.00;;;;10400365;28;20248;-80
2023/05/21 02:38:24;;;;;;;6.67;4.67;;;;;11.60;101229.00;;;;10421228;28;20216;-75
2023/05/21 02:43:26;;;;;;;5.87;4.27;;;;;11.60;101230.00;;;;10385623;28;20575;-78
2023/05/21 02:48:28;;;;;;;7.27;4.73;;;;;11.60;101237.00;;;;10410608;28;20299;-77
2023/05/21 02:53:29;;;;;;;5.37;4.30;;;;;11.60;101243.00;;;;10402773;28;20220;-76
2023/05/21 02:58:32;;;;;;;8.50;5.10;;;;;11.60;101236.00;;;;10439885;28;20261;-77
2023/05/21 03:03:33;;;;;;;6.60;5.17;;;;;11.60;101229.00;;;;10419339;28;20297;-75
2023/05/21 03:08:36;;;;;;;5.80;5.27;;;;;11.60;101226.00;;;;10383668;28;20224;-77
2023/05/21 03:13:38;;;;;;;7.80;5.80;;;;;11.60;101234.00;;;;10425947;28;20651;-76
2023/05/21 03:18:40;;;;;;;6.43;5.10;;;;;11.60;101218.00;;;;10425185;28;20216;-76
2023/05/21 03:23:41;;;;;;;8.53;5.20;;;;;11.60;101220.00;;;;10411575;28;20900;-76
2023/05/21 03:28:43;;;;;;;7.53;5.43;;;;;11.50;101230.00;;;;10408537;28;20208;-76
2023/05/21 03:33:44;;;;;;;6.87;5.50;;;;;11.50;101233.00;;;;10386926;28;20200;-74
2023/05/21 03:38:57;;;;;;;7.70;5.10;;;;;11.50;101228.00;;;;10388288;28;20429;-76
2023/05/21 03:43:59;;;;;;;6.70;5.60;;;;;11.50;101227.00;;;;10410352;28;20745;-77
2023/05/21 03:49:05;;;;;;;7.00;5.63;;;;;11.50;101226.00;;;;10408113;28;20555;-76
2023/05/21 03:54:08;;;;;;;10.43;6.00;;;;;11.50;101229.00;;;;10406053;28;20201;-75
2023/05/21 03:59:11;;;;;;;9.03;6.47;;;;;11.50;101230.00;;;;10409470;28;20699;-78
2023/05/21 04:04:13;;;;;;;10.57;6.03;;;;;11.50;101231.00;;;;10402568;28;20399;-75
2023/05/21 04:09:15;;;;;;;14.10;6.30;;;;;11.60;101228.00;;;;10418052;28;20394;-74
2023/05/21 04:14:16;;;;;;;7.33;6.00;;;;;11.70;101234.00;;;;10405302;28;20291;-76
2023/05/21 04:19:18;;;;;;;7.77;6.40;;;;;11.80;101219.00;;;;10393721;28;20346;-78
2023/05/21 04:24:21;;;;;;;8.17;6.13;;;;;11.90;101229.00;;;;10365571;28;20219;-76
2023/05/21 04:29:41;;;;;;;8.70;6.43;;;;;12.00;101239.00;;;;10381360;28;21345;-76
2023/05/21 04:34:43;;;;;;;11.40;7.27;;;;;12.20;101242.00;;;;10370663;28;20204;-76
2023/05/21 04:39:45;;;;;;;7.30;6.53;;;;;12.30;101242.00;;;;10424543;28;20513;-75
2023/05/21 04:44:47;;;;;;;8.60;6.80;;;;;12.50;101243.00;;;;10400643;28;20319;-75
2023/05/21 04:49:49;;;;;;;11.73;6.43;;;;;12.60;101252.00;;;;10418206;28;20302;-75
2023/05/21 04:54:52;;;;;;;8.07;6.23;;;;;12.70;101243.00;;;;10403522;28;20258;-76
2023/05/21 04:59:56;;;;;;;7.60;6.00;;;;;12.80;101234.00;;;;10404006;28;21157;-76
2023/05/21 05:04:58;;;;;;;8.73;6.33;;;;;12.90;101239.00;;;;10420838;28;21219;-75
2023/05/21 05:10:00;;;;;;;7.37;6.30;;;;;13.00;101241.00;;;;10425278;28;20566;-76
2023/05/21 05:15:03;;;;;;;7.10;6.40;;;;;13.20;101243.00;;;;10422581;28;20233;-76
2023/05/21 05:20:08;;;;;;;10.63;5.70;;;;;13.30;101249.00;;;;10373470;28;20694;-75
2023/05/21 05:25:10;;;;;;;9.03;6.20;;;;;13.50;101242.00;;;;10403483;28;20232;-77
2023/05/21 05:30:12;;;;;;;8.17;6.17;;;;;13.60;101249.00;;;;10461889;28;20204;-77
2023/05/21 05:35:14;;;;;;;8.70;6.10;;;;;13.70;101253.00;;;;10408686;28;20201;-75
2023/05/21 05:40:15;;;;;;;11.90;6.07;;;;;13.80;101248.00;;;;10381466;28;20579;-75
2023/05/21 05:45:17;;;;;;;8.80;6.37;;;;;14.00;101245.00;;;;10434803;28;20208;-75
2023/05/21 05:50:19;;;;;;;7.03;6.40;;;;;14.20;101245.00;;;;10463953;28;20209;-79
2023/05/21 05:55:21;;;;;;;6.70;5.90;;;;;14.50;101251.00;;;;10460745;28;20364;-76
2023/05/21 06:00:23;;;;;;;9.37;6.10;;;;;14.90;101253.00;;;;10421898;28;20287;-75
2023/05/21 06:05:26;;;;;;;8.90;6.30;;;;;15.10;101259.00;;;;10430557;28;20269;-75
2023/05/21 06:10:27;;;;;;;9.00;6.47;;;;;15.30;101255.00;;;;10420871;28;20204;-76
2023/05/21 06:15:29;;;;;;;7.47;6.60;;;;;15.30;101251.00;;;;10436642;28;20291;-76
2023/05/21 06:20:31;;;;;;;6.80;6.10;;;;;15.50;101247.00;;;;10436932;28;20220;-76
2023/05/21 06:25:34;;;;;;;6.20;5.53;;;;;15.60;101250.00;;;;10437818;28;20204;-77
2023/05/21 06:30:36;;;;;;;6.53;5.93;;;;;16.00;101255.00;;;;10391604;28;20507;-76
2023/05/21 06:35:39;;;;;;;8.40;6.27;;;;;16.30;101260.00;;;;10395171;28;20233;-76
2023/05/21 06:40:43;;;;;;;6.67;6.07;;;;;16.60;101261.00;;;;10399842;28;20915;-75
2023/05/21 06:45:48;;;;;;;7.37;5.87;;;;;16.80;101258.00;;;;10416356;28;20204;-75
2023/05/21 06:51:11;;;;;;;7.30;5.77;;;;;16.80;101255.00;;;;10380220;28;20233;-76
2023/05/21 06:56:12;;;;;;;7.40;6.40;;;;;16.70;101260.00;;;;10408969;28;20682;-76
2023/05/21 07:01:18;;;;;;;7.30;6.30;;;;;17.00;101253.00;;;;10391171;28;20231;-76
2023/05/21 07:06:19;;;;;;;6.63;6.00;;;;;17.70;101242.00;;;;10395512;28;20216;-77
2023/05/21 07:11:21;;;;;;;7.32;6.38;;;;;18.70;101247.00;;;;10416622;28;20351;-78
2023/05/21 07:16:22;;;;;;;7.47;6.60;;;;;19.50;101246.00;;;;10435389;28;20259;-77
2023/05/21 07:21:24;;;;;;;8.40;6.30;;;;;20.10;101249.00;;;;10416292;28;20225;-77
2023/05/21 07:26:26;;;;;;;6.78;5.70;;;;;20.70;101240.00;;;;10399202;28;21345;-78
2023/05/21 07:31:28;;;;;;;7.45;5.75;;;;;21.10;101235.00;;;;10431898;28;21521;-77
2023/05/21 07:36:32;;;;;;;10.05;6.35;;;;;21.40;101235.00;;;;10415273;28;20208;-77
2023/05/21 07:41:36;;;;;;;7.88;6.32;;;;;21.60;101230.00;;;;10408822;28;20257;-77
2023/05/21 07:46:42;;;;;;;7.25;5.55;;;;;21.40;101233.00;;;;10482118;22;20185;-77
2023/05/21 07:51:45;;;;;;;5.78;5.20;;;;;21.80;101224.00;;;;10420202;22;20238;-77
2023/05/21 07:56:48;;;;;;;8.45;6.53;;;;;22.00;101234.00;;;;10640157;22;20228;-77
2023/05/21 08:02:19;;;;;;;7.35;6.07;;;;;21.80;101231.00;;;;10516330;22;20245;-77
2023/05/21 08:07:21;;;;;;;6.70;6.00;;;;;21.70;101226.00;;;;10430340;22;20260;-78
2023/05/21 08:12:23;;;;;;;6.75;5.90;;;;;22.00;101220.00;;;;10350008;28;21784;-76
2023/05/21 08:17:24;;;;;;;7.78;6.30;;;;;23.00;101225.00;;;;10325247;28;20267;-75
2023/05/21 08:22:26;;;;;;;7.47;6.03;;;;;23.50;101222.00;;;;10327148;28;20842;-75
2023/05/21 08:27:27;;;;;;;8.25;6.45;;;;;23.60;101224.00;;;;10344668;28;20271;-76
2023/05/21 08:32:29;;;;;;;8.25;6.15;;;;;23.80;101218.00;;;;10345771;28;20225;-75
2023/05/21 08:37:31;;;;;;;8.80;6.68;;;;;24.20;101214.00;;;;10344877;28;20277;-80
2023/05/21 08:42:52;;;;;;;9.88;6.88;;;;;24.80;101205.00;;;;10355504;28;20237;-82
2023/05/21 08:48:01;;;;;;;7.65;6.63;;;;;25.30;101216.00;;;;10363667;28;20610;-78
2023/05/21 08:53:07;;;;;;;8.70;6.50;;;;;25.20;101210.00;;;;10372477;28;20981;-82
2023/05/21 08:58:31;;;;;;;7.13;6.43;;;;;25.20;101193.00;;;;10370324;28;20209;-79
2023/05/21 09:03:32;;;;;;;8.43;7.30;;;;;25.20;101211.00;;;;10367294;28;20252;-76
2023/05/21 09:08:37;;;;;;;8.95;6.68;;;;;26.00;101190.00;;;;10314439;28;20827;-76
2023/05/21 09:13:44;;;;;;;11.70;7.63;;;;;26.70;101203.00;;;;10349866;28;20209;-76
2023/05/21 09:18:53;;;;;;;7.07;6.35;;;;;27.20;101195.00;;;;10345910;28;20279;-76
2023/05/21 09:23:59;;;;;;;8.68;7.55;;;;;26.10;101195.00;;;;10327284;28;20267;-77
2023/05/21 09:29:00;;;;;;;8.63;7.28;;;;;26.40;101187.00;;;;10327147;28;20584;-77
2023/05/21 09:34:02;;;;;;;8.70;7.25;;;;;26.90;101181.00;;;;10326678;28;20209;-77
2023/05/21 09:39:06;;;;;;;8.10;7.30;;;;;27.20;101186.00;;;;10326815;28;22036;-77
2023/05/21 09:44:09;;;;;;;8.43;7.63;;;;;27.50;101174.00;;;;10321476;28;20233;-76
2023/05/21 09:49:30;;;;;;;9.90;8.25;;;;;27.80;101177.00;;;;10321439;28;20287;-77
2023/05/21 09:54:34;;;;;;;8.10;7.30;;;;;28.10;101167.00;;;;10293169;28;20238;-77
2023/05/21 09:59:39;;;;;;;12.32;7.90;;;;;28.40;101171.00;;;;10326848;28;20276;-76
2023/05/21 10:04:42;;;;;;;10.75;9.00;;;;;27.90;101169.00;;;;10342832;28;20221;-77
2023/05/21 10:09:47;;;;;;;8.95;8.00;;;;;28.20;101158.00;;;;10329230;28;20210;-76
2023/05/21 10:20:19;;;;;;;13.13;8.80;;;;;28.70;101141.00;;;;10208408;28;20294;-79
2023/05/21 10:25:22;;;;;;;10.73;8.35;;;;;29.00;101137.00;;;;10217439;28;20209;-78
2023/05/21 10:30:24;;;;;;;9.80;8.80;;;;;29.10;101130.00;;;;10159604;28;21637;-76
2023/05/21 10:35:26;;;;;;;12.95;10.02;;;;;27.70;101137.00;;;;10167151;28;21372;-76
2023/05/21 10:40:28;;;;;;;10.77;8.85;;;;;27.60;101121.00;;;;10169151;28;20249;-76
2023/05/21 10:45:46;;;;;;;10.38;9.35;;;;;29.70;101112.00;;;;10160088;28;20208;-76
2023/05/21 10:51:24;;;;;;;10.93;9.80;;;;;30.10;101106.00;;;;10163740;28;20825;-81
2023/05/21 10:56:43;;;;;;;10.90;9.55;;;;;28.50;101101.00;;;;10235441;28;20216;-78
2023/05/21 11:01:44;;;;;;;11.95;10.70;;;;;27.90;101091.00;;;;10234037;28;20227;-81
2023/05/21 11:06:49;;;;;;;11.43;10.10;;;;;29.10;101087.00;;;;10230711;28;21480;-81
2023/05/21 11:12:01;;;;;;;11.77;10.57;;;;;29.80;101076.00;;;;10230411;28;21282;-81
2023/05/21 11:17:08;;;;;;;13.02;10.07;;;;;31.20;101079.00;;;;10227230;28;20295;-82
2023/05/21 11:22:33;;;;;;;12.32;11.00;;;;;30.60;101092.00;;;;10227635;28;20232;-78
2023/05/21 11:27:41;;;;;;;13.48;10.90;;;;;28.60;101096.00;;;;10215606;28;20211;-82
2023/05/21 11:33:08;;;;;;;10.60;9.23;;;;;27.50;101104.00;;;;10222426;28;21361;-80
2023/05/21 11:38:10;;;;;;;12.15;10.95;;;;;27.10;101100.00;;;;10228989;28;20204;-82
2023/05/21 11:43:11;;;;;;;12.65;11.13;;;;;28.30;101106.00;;;;10228709;28;21270;-79
2023/05/21 11:48:13;;;;;;;12.85;11.38;;;;;27.90;101108.00;;;;10232469;28;20235;-78
2023/05/21 11:53:14;;;;;;;12.95;11.30;;;;;27.60;101091.00;;;;10191817;28;20244;-76
2023/05/21 11:58:18;;;;;;;12.57;11.30;;;;;28.40;101078.00;;;;10183874;28;20215;-76
2023/05/21 12:03:25;;;;;;;12.25;10.82;;;;;28.90;101078.00;;;;10212546;28;20209;-77
2023/05/21 12:08:27;;;;;;;11.40;10.23;;;;;28.40;101076.00;;;;10227001;28;20204;-81
2023/05/21 12:13:28;;;;;;;11.63;10.48;;;;;27.80;101080.00;;;;10237226;28;20201;-80
2023/05/21 12:18:30;;;;;;;12.55;11.25;;;;;28.40;101083.00;;;;10531561;22;20196;-81
2023/05/21 12:23:31;;;;;;;12.88;11.50;;;;;29.40;101064.00;;;;10323536;28;20219;-78
2023/05/21 12:28:32;;;;;;;16.02;11.10;;;;;28.30;101072.00;;;;10326166;28;20223;-78
2023/05/21 12:33:34;;;;;;;11.65;10.45;;;;;27.50;101065.00;;;;10288564;28;20212;-77
2023/05/21 12:38:36;;;;;;;11.85;10.65;;;;;27.50;101053.00;;;;10261638;28;20203;-77
2023/05/21 12:43:37;;;;;;;13.00;11.73;;;;;29.10;101062.00;;;;10270833;28;20922;-78
2023/05/21 12:48:41;;;;;;;14.25;11.10;;;;;30.20;101063.00;;;;10259257;28;20212;-77
2023/05/21 12:53:43;;;;;;;15.82;11.05;;;;;29.00;101066.00;;;;10229255;28;20858;-76
2023/05/21 12:58:49;;;;;;;13.32;11.00;;;;;28.60;101059.00;;;;10231293;28;21931;-75
2023/05/21 13:03:50;;;;;;;15.85;11.02;;;;;28.60;101048.00;;;;10229158;28;20227;-76
2023/05/21 13:08:51;;;;;;;12.32;11.02;;;;;27.80;101052.00;;;;10226040;28;20567;-76
2023/05/21 13:13:52;;;;;;;13.55;11.95;;;;;28.10;101048.00;;;;10228021;28;20282;-77
2023/05/21 13:18:54;;;;;;;11.80;10.68;;;;;29.70;101040.00;;;;10225664;28;20211;-76
2023/05/21 13:23:55;;;;;;;13.90;9.77;;;;;30.90;101032.00;;;;10227871;28;20210;-76
2023/05/21 13:28:57;;;;;;;11.13;9.05;;;;;29.10;101043.00;;;;10227531;28;20220;-77
2023/05/21 13:33:58;;;;;;;11.52;10.32;;;;;29.70;101028.00;;;;10225341;28;20339;-75
2023/05/21 13:38:59;;;;;;;11.48;10.40;;;;;30.60;101017.00;;;;10227258;28;20204;-77
2023/05/21 13:44:01;;;;;;;12.85;10.40;;;;;30.70;101020.00;;;;10230479;28;20668;-76
2023/05/21 13:49:02;;;;;;;11.32;10.23;;;;;30.20;101020.00;;;;10228989;28;20231;-77
2023/05/21 13:54:03;;;;;;;11.20;9.77;;;;;29.90;101008.00;;;;10229272;28;20246;-77
2023/05/21 13:59:05;;;;;;;11.60;10.40;;;;;30.10;100999.00;;;;10234177;28;21315;-76
2023/05/21 14:04:07;;;;;;;13.43;10.50;;;;;29.20;100997.00;;;;10717899;22;20216;-77
2023/05/21 14:32:33;;;;;;;10.48;9.48;;;;;29.30;100993.00;;;;11834435;23;20281;-78
2023/05/21 14:43:17;;;;;;;10.82;9.70;;;;;29.70;100994.00;;;;11373448;23;20292;-78
2023/05/21 14:48:21;;;;;;;11.57;10.48;;;;;29.60;100994.00;;;;10872010;24;20251;-77
2023/05/21 14:53:23;;;;;;;10.23;9.23;;;;;29.30;100991.00;;;;10011836;29;20242;-76
2023/05/21 14:58:24;;;;;;;11.00;9.18;;;;;29.50;100983.00;;;;10005323;29;21604;-74
2023/05/21 15:03:25;;;;;;;11.88;9.32;;;;;27.80;100973.00;;;;10006331;29;20237;-76
2023/05/21 15:08:27;;;;;;;12.43;10.40;;;;;30.40;100987.00;;;;10006026;29;20931;-75
2023/05/21 15:13:28;;;;;;;11.20;10.07;;;;;32.30;100985.00;;;;9990565;29;20227;-77
2023/05/21 15:18:30;;;;;;;13.27;9.90;;;;;29.90;100994.00;;;;10010194;29;20361;-77
2023/05/21 15:23:31;;;;;;;14.10;10.55;;;;;29.00;100987.00;;;;10006433;29;20265;-76
2023/05/21 15:28:32;;;;;;;10.50;9.40;;;;;30.00;100991.00;;;;10013902;29;20261;-76
2023/05/21 15:33:33;;;;;;;13.40;10.80;;;;;31.50;100998.00;;;;10016168;29;20246;-76
2023/05/21 15:38:35;;;;;;;11.48;10.25;;;;;29.20;100992.00;;;;10011939;29;20548;-76
2023/05/21 15:43:36;;;;;;;12.55;9.85;;;;;28.20;100999.00;;;;10015913;29;20717;-75
2023/05/21 15:48:38;;;;;;;13.88;10.20;;;;;27.80;100995.00;;;;10013132;29;20215;-75
2023/05/21 15:53:39;;;;;;;12.88;10.13;;;;;27.10;100996.00;;;;10012473;29;22013;-75
2023/05/21 15:58:40;;;;;;;11.30;10.10;;;;;26.00;100986.00;;;;10009576;29;20296;-77
2023/05/21 16:03:42;;;;;;;11.35;10.07;;;;;25.60;100986.00;;;;10012861;29;20216;-76
2023/05/21 16:08:43;;;;;;;11.57;9.63;;;;;25.70;100986.00;;;;10014800;29;20220;-75
2023/05/21 16:13:44;;;;;;;11.98;10.00;;;;;25.40;100980.00;;;;10012510;29;20216;-75
2023/05/21 16:18:46;;;;;;;11.27;9.10;;;;;25.50;100981.00;;;;10008941;29;20244;-76
2023/05/21 16:23:48;;;;;;;11.48;9.77;;;;;25.70;100983.00;;;;10003847;29;20284;-76
2023/05/21 16:28:49;;;;;;;10.75;9.65;;;;;25.30;100987.00;;;;10002649;29;21876;-76
2023/05/21 16:33:50;;;;;;;13.75;9.30;;;;;25.80;100989.00;;;;10504055;23;21122;-77
2023/05/21 16:38:52;;;;;;;11.55;9.57;;;;;25.80;100984.00;;;;10049641;29;20275;-79
2023/05/21 16:43:53;;;;;;;11.02;9.05;;;;;25.90;100982.00;;;;10011622;29;20256;-77
2023/05/21 16:48:54;;;;;;;10.63;8.98;;;;;25.90;100984.00;;;;10048372;29;20230;-77
2023/05/21 16:53:55;;;;;;;12.95;9.38;;;;;25.80;100976.00;;;;9987853;29;20350;-76
2023/05/21 16:58:57;;;;;;;12.77;9.27;;;;;25.40;100963.00;;;;9983065;29;20271;-77
2023/05/21 17:03:58;;;;;;;9.05;8.15;;;;;24.90;100972.00;;;;9985246;29;20232;-77
2023/05/21 17:09:00;;;;;;;11.07;8.70;;;;;24.70;100976.00;;;;9968479;29;20232;-76
2023/05/21 17:14:02;;;;;;;9.35;8.32;;;;;24.80;100972.00;;;;9984881;29;20299;-76
2023/05/21 17:19:04;;;;;;;10.52;8.80;;;;;24.70;100970.00;;;;9984794;29;20215;-76
2023/05/21 17:24:05;;;;;;;10.82;8.55;;;;;24.60;100981.00;;;;9985034;29;21906;-76
2023/05/21 17:29:07;;;;;;;10.40;9.18;;;;;24.50;100980.00;;;;9988912;29;20219;-76
2023/05/21 17:34:08;;;;;;;14.10;9.32;;;;;24.50;100984.00;;;;9989889;29;20204;-74
2023/05/21 17:39:10;;;;;;;11.50;8.40;;;;;24.40;100969.00;;;;10004741;29;20220;-75
2023/05/21 17:44:12;;;;;;;10.98;9.02;;;;;24.20;100969.00;;;;9990511;29;20522;-75
2023/05/21 17:49:14;;;;;;;10.75;8.60;;;;;24.00;100980.00;;;;9988935;29;20315;-75
2023/05/21 17:54:15;;;;;;;12.70;8.95;;;;;24.10;100985.00;;;;9988128;29;20220;-76
2023/05/21 17:59:16;;;;;;;10.85;8.60;;;;;24.00;100995.00;;;;9991809;29;20208;-76
2023/05/21 18:04:18;;;;;;;12.43;8.25;;;;;23.80;100993.00;;;;10002413;29;20338;-76
2023/05/21 18:20:38;;;;;;;13.18;7.03;;;;;22.60;101011.00;;;;10390134;23;20254;-77
2023/05/21 18:25:39;;;;;;;10.60;6.60;;;;;22.00;101020.00;;;;10104620;28;20220;-75
2023/05/21 18:30:41;;;;;;;12.32;6.60;;;;;21.60;101019.00;;;;10076853;28;20512;-77
2023/05/21 18:35:43;;;;;;;11.43;7.00;;;;;21.30;101016.00;;;;10105014;28;21243;-77
2023/05/21 18:40:45;;;;;;;9.57;6.45;;;;;21.00;101016.00;;;;10104500;28;20234;-76
2023/05/21 18:45:46;;;;;;;9.88;6.32;;;;;20.70;101022.00;;;;10081209;28;20222;-79
2023/05/21 18:50:48;;;;;;;13.68;7.00;;;;;20.50;101025.00;;;;10104736;28;20230;-79
2023/05/21 18:55:49;;;;;;;9.40;5.90;;;;;20.30;101018.00;;;;10121988;29;20225;-76
2023/05/21 19:00:50;;;;;;;12.13;6.90;;;;;20.00;101024.00;;;;10085998;28;20243;-75
2023/05/21 19:05:52;;;;;;;13.27;6.68;;;;;19.80;101029.00;;;;10085075;28;20259;-76
2023/05/21 19:10:53;;;;;;;15.68;7.18;;;;;19.50;101040.00;;;;10101596;28;20234;-76
2023/05/21 19:15:56;;;;;;;13.30;6.72;;;;;19.30;101045.00;;;;10103747;29;20340;-75
2023/05/21 19:20:59;;;;;;;13.82;7.18;;;;;19.10;101052.00;;;;10101837;28;21769;-77
2023/05/21 19:26:00;;;;;;;15.85;7.43;;;;;18.80;101050.00;;;;10101952;28;20317;-75
2023/05/21 19:31:02;;;;;;;14.85;7.10;;;;;18.60;101045.00;;;;10104871;29;20218;-76
2023/05/21 19:36:03;;;;;;;15.65;7.43;;;;;18.40;101047.00;;;;10104844;28;21510;-76
2023/05/21 19:41:05;;;;;;;16.15;7.18;;;;;18.20;101057.00;;;;10085293;29;20210;-75
2023/05/21 19:46:06;;;;;;;13.13;6.43;;;;;18.10;101055.00;;;;10084989;29;20206;-75
2023/05/21 19:51:08;;;;;;;12.77;6.78;;;;;17.90;101065.00;;;;10103159;28;20569;-76
2023/05/21 19:56:09;;;;;;;12.23;7.03;;;;;17.70;101069.00;;;;10106398;28;21399;-75
2023/05/21 20:01:13;;;;;;;16.52;7.70;;;;;17.60;101066.00;;;;10102189;28;20217;-76
2023/05/21 20:06:14;;;;;;;14.25;7.40;;;;;17.50;101079.00;;;;10085870;28;20237;-75
2023/05/21 20:11:16;;;;;;;19.15;7.93;;;;;17.40;101082.00;;;;10080811;28;20218;-76
2023/05/21 20:16:19;;;;;;;13.38;7.05;;;;;17.30;101088.00;;;;10084525;28;20324;-76
2023/05/21 20:21:20;;;;;;;15.40;7.30;;;;;17.10;101103.00;;;;10085436;29;20213;-76
2023/05/21 20:26:22;;;;;;;15.18;7.35;;;;;16.90;101094.00;;;;10100834;28;20226;-76
2023/05/21 20:31:24;;;;;;;18.25;7.28;;;;;16.80;101094.00;;;;10101210;28;20831;-76
2023/05/21 20:36:25;;;;;;;12.13;7.57;;;;;16.60;101103.00;;;;10102470;29;20771;-76
2023/05/21 20:41:34;;;;;;;16.33;6.95;;;;;16.50;101117.00;;;;10083770;29;20225;-76
2023/05/21 20:46:37;;;;;;;15.90;7.63;;;;;16.40;101110.00;;;;10100308;29;21576;-76
2023/05/21 20:51:43;;;;;;;14.00;6.82;;;;;16.20;101111.00;;;;10081873;28;20330;-75
2023/05/21 20:56:44;;;;;;;12.95;7.38;;;;;16.10;101114.00;;;;10098173;29;20218;-76
2023/05/21 21:01:45;;;;;;;14.25;6.30;;;;;16.00;101103.00;;;;10082779;29;20260;-75
2023/05/21 21:06:47;;;;;;;13.20;6.57;;;;;15.90;101108.00;;;;10099561;28;20223;-76
2023/05/21 21:11:48;;;;;;;11.90;7.30;;;;;15.80;101111.00;;;;10100762;28;20328;-76
2023/05/21 21:16:50;;;;;;;15.32;7.75;;;;;15.70;101112.00;;;;10084004;28;20246;-75
2023/05/21 21:21:52;;;;;;;13.68;6.82;;;;;15.60;101105.00;;;;10083706;28;20265;-75
2023/05/21 21:26:53;;;;;;;12.00;7.30;;;;;15.50;101114.00;;;;10081932;28;20669;-75
2023/05/21 21:31:56;;;;;;;21.47;8.40;;;;;15.40;101115.00;;;;10083125;28;20222;-76
2023/05/21 21:36:57;;;;;;;13.47;7.47;;;;;15.30;101118.00;;;;10100265;29;20301;-75
2023/05/21 21:41:58;;;;;;;12.83;7.57;;;;;15.20;101122.00;;;;10097612;29;20232;-75
2023/05/21 21:47:00;;;;;;;15.43;8.18;;;;;15.10;101117.00;;;;10079713;28;20198;-75
2023/05/21 21:52:01;;;;;;;14.70;8.30;;;;;15.00;101118.00;;;;10081313;29;20207;-75
2023/05/21 21:57:02;;;;;;;15.67;8.30;;;;;14.90;101112.00;;;;10098850;29;20380;-76
2023/05/21 22:02:04;;;;;;;15.87;8.70;;;;;14.80;101116.00;;;;10096743;28;20241;-76
2023/05/21 22:07:09;;;;;;;18.03;9.23;;;;;14.80;101122.00;;;;10097780;28;20336;-75
2023/05/21 22:12:11;;;;;;;16.77;9.20;;;;;14.70;101123.00;;;;10081524;29;20215;-75
2023/05/21 22:17:16;;;;;;;19.53;10.50;;;;;14.60;101136.00;;;;10103401;28;20214;-76
2023/05/21 22:22:18;;;;;;;18.13;10.30;;;;;14.50;101117.00;;;;10084604;28;20238;-75
2023/05/21 22:27:20;;;;;;;18.10;10.90;;;;;14.40;101125.00;;;;10103839;28;20480;-75
2023/05/21 22:32:21;;;;;;;16.57;10.77;;;;;14.30;101129.00;;;;10103648;28;20236;-76
2023/05/21 22:37:24;;;;;;;28.63;13.07;;;;;14.20;101127.00;;;;10086971;28;20225;-76
2023/05/21 22:42:26;;;;;;;19.07;11.27;;;;;14.10;101128.00;;;;10070685;28;21432;-74
2023/05/21 22:47:27;;;;;;;21.77;12.80;;;;;14.00;101125.00;;;;10104759;28;20206;-76
2023/05/21 22:52:29;;;;;;;21.13;12.30;;;;;14.00;101133.00;;;;10086493;29;20234;-74
2023/05/21 22:57:30;;;;;;;29.27;12.57;;;;;13.90;101131.00;;;;10100872;28;20897;-75
2023/05/21 23:02:32;;;;;;;25.80;12.93;;;;;13.90;101136.00;;;;10086169;29;20285;-76
2023/05/21 23:07:33;;;;;;;21.73;12.50;;;;;13.80;101146.00;;;;10084931;28;21155;-75
2023/05/21 23:12:36;;;;;;;23.00;13.50;;;;;13.70;101126.00;;;;10086953;29;20218;-75
2023/05/21 23:17:37;;;;;;;24.10;12.87;;;;;13.60;101116.00;;;;10087049;29;20217;-76
2023/05/21 23:22:39;;;;;;;25.40;13.80;;;;;13.50;101133.00;;;;10102866;28;20485;-75
2023/05/21 23:27:40;;;;;;;23.80;13.20;;;;;13.40;101139.00;;;;10102352;28;20214;-76
2023/05/21 23:32:42;;;;;;;29.47;14.10;;;;;13.30;101133.00;;;;10085278;29;20334;-75
2023/05/21 23:37:43;;;;;;;23.97;14.70;;;;;13.30;101131.00;;;;10086284;29;20274;-75
2023/05/21 23:42:44;;;;;;;21.53;13.50;;;;;13.20;101134.00;;;;10086710;29;20317;-75
2023/05/21 23:47:45;;;;;;;24.70;14.80;;;;;13.20;101139.00;;;;10100205;28;21309;-75
2023/05/21 23:52:47;;;;;;;26.83;14.73;;;;;13.10;101132.00;;;;10068195;28;20565;-76
2023/05/21 23:57:48;;;;;;;26.50;14.87;;;;;13.10;101127.00;;;;10102165;28;20214;-75
